createdAt,value
2023-01-17T00:00:00.183Z,22.50
2023-01-17T00:02:52.848Z,20.40
2023-01-17T00:05:38.526Z,19.70
2023-01-17T00:08:24.422Z,26.00
2023-01-17T00:10:51.587Z,18.30
2023-01-17T00:13:19.023Z,21.80
2023-01-17T00:15:46.450Z,19.90
2023-01-17T00:18:13.537Z,26.90
2023-01-17T00:20:59.138Z,27.40
2023-01-17T00:23:44.926Z,22.50
2023-01-17T00:26:17.108Z,22.50
2023-01-17T00:28:44.636Z,22.20
2023-01-17T00:31:13.101Z,21.00
2023-01-17T00:33:40.168Z,22.50
2023-01-17T00:36:08.391Z,25.20
2023-01-17T00:38:36.939Z,17.90
2023-01-17T00:41:06.137Z,28.10
2023-01-17T00:43:51.748Z,25.00
2023-01-17T00:46:37.444Z,25.40
2023-01-17T00:49:23.397Z,25.00
2023-01-17T00:52:09.074Z,28.30
2023-01-17T00:54:55.393Z,32.60
2023-01-17T00:57:41.068Z,32.30
2023-01-17T01:00:27.781Z,32.00
2023-01-17T01:03:13.663Z,31.50
2023-01-17T01:05:59.578Z,27.10
2023-01-17T01:08:46.567Z,21.80
2023-01-17T01:11:34.416Z,31.20
2023-01-17T01:58:44.158Z,16.40
2023-01-17T02:01:11.168Z,22.20
2023-01-17T02:03:38.317Z,21.00
2023-01-17T02:06:24.367Z,24.30
2023-01-17T02:08:51.612Z,26.50
2023-01-17T02:11:18.881Z,35.00
2023-01-17T02:13:45.808Z,31.90
2023-01-17T02:16:20.143Z,37.00
2023-01-17T02:19:02.336Z,38.80
2023-01-17T02:21:33.582Z,36.50
2023-01-17T02:24:00.538Z,37.50
2023-01-17T02:26:30.476Z,35.80
2023-01-17T02:29:22.490Z,41.80
2023-01-17T02:31:58.023Z,33.90
2023-01-17T02:34:25.896Z,37.30
2023-01-17T02:36:57.962Z,28.00
2023-01-17T02:39:30.438Z,25.70
2023-01-17T02:42:03.219Z,26.00
2023-01-17T02:44:30.189Z,22.20
2023-01-17T02:46:57.761Z,25.40
2023-01-17T02:49:27.417Z,29.70
2023-01-17T02:52:12.821Z,23.50
2023-01-17T02:55:01.582Z,27.30
2023-01-17T02:57:37.741Z,28.50
2023-01-17T03:00:14.415Z,29.70
2023-01-17T03:02:55.373Z,31.50
2023-01-17T03:05:41.622Z,37.30
2023-01-17T03:08:08.540Z,38.80
2023-01-17T03:10:35.515Z,40.40
2023-01-17T03:13:02.652Z,37.40
2023-01-17T03:15:29.584Z,37.60
2023-01-17T03:17:59.033Z,39.30
2023-01-17T03:20:26.035Z,36.20
2023-01-17T03:22:52.923Z,30.60
2023-01-17T03:25:19.769Z,28.30
2023-01-17T03:27:46.788Z,29.20
2023-01-17T03:30:14.137Z,22.00
2023-01-17T03:32:40.975Z,22.90
2023-01-17T03:35:08.749Z,23.10
2023-01-17T03:37:35.816Z,21.60
2023-01-17T03:40:02.853Z,25.10
2023-01-17T03:42:29.993Z,26.70
2023-01-17T03:44:56.944Z,22.70
2023-01-17T03:47:23.990Z,22.60
2023-01-17T03:49:51.724Z,24.70
2023-01-17T03:52:18.805Z,25.80
2023-01-17T03:54:45.672Z,24.30
2023-01-17T03:57:12.696Z,24.30
2023-01-17T03:59:39.643Z,23.30
2023-01-17T04:02:06.703Z,25.80
2023-01-17T04:04:34.354Z,27.90
2023-01-17T04:07:01.173Z,29.60
2023-01-17T04:09:28.151Z,27.30
2023-01-17T04:11:55.095Z,25.30
2023-01-17T04:14:21.954Z,25.30
2023-01-17T04:16:48.898Z,29.40
2023-01-17T04:19:15.830Z,42.80
2023-01-17T04:21:42.677Z,25.30
2023-01-17T04:24:09.625Z,30.90
2023-01-17T04:26:36.567Z,26.90
2023-01-17T04:29:03.687Z,29.50
2023-01-17T04:31:30.585Z,38.80
2023-01-17T04:33:57.510Z,38.10
2023-01-17T04:36:24.464Z,42.10
2023-01-17T04:38:51.343Z,45.30
2023-01-17T04:41:18.233Z,37.50
2023-01-17T04:43:45.197Z,40.10
2023-01-17T04:46:12.894Z,39.00
2023-01-17T04:48:40.020Z,34.60
2023-01-17T04:51:06.956Z,33.50
2023-01-17T04:53:33.914Z,32.70
2023-01-17T04:56:00.957Z,36.60
2023-01-17T04:58:28.009Z,40.70
2023-01-17T05:00:55.143Z,33.00
2023-01-17T05:03:23.785Z,38.50
2023-01-17T05:05:50.691Z,31.60
2023-01-17T05:08:17.943Z,30.10
2023-01-17T05:10:46.237Z,33.20
2023-01-17T05:13:13.471Z,31.30
2023-01-17T05:15:40.449Z,36.60
2023-01-17T05:18:08.899Z,43.80
2023-01-17T05:20:36.702Z,33.60
2023-01-17T05:23:03.726Z,38.10
2023-01-17T05:25:31.650Z,37.50
2023-01-17T05:28:00.412Z,37.80
2023-01-17T05:30:28.659Z,34.90
2023-01-17T05:32:56.333Z,41.30
2023-01-17T05:35:25.414Z,36.80
2023-01-17T05:37:52.813Z,43.20
2023-01-17T05:40:21.369Z,36.80
2023-01-17T05:42:48.934Z,36.70
2023-01-17T05:45:17.207Z,43.20
2023-01-17T05:47:48.166Z,46.10
2023-01-17T05:50:17.846Z,40.20
2023-01-17T05:52:52.914Z,42.70
2023-01-17T05:55:20.244Z,44.70
2023-01-17T05:57:47.154Z,40.10
2023-01-17T06:00:14.862Z,43.10
2023-01-17T06:02:41.925Z,47.50
2023-01-17T06:05:09.882Z,41.90
2023-01-17T06:07:36.820Z,43.90
2023-01-17T06:10:04.760Z,53.10
2023-01-17T06:12:32.360Z,45.20
2023-01-17T06:14:59.231Z,36.40
2023-01-17T06:17:26.127Z,43.60
2023-01-17T06:19:53.106Z,38.80
2023-01-17T06:22:20.132Z,44.10
2023-01-17T06:24:47.089Z,44.70
2023-01-17T06:27:14.031Z,50.80
2023-01-17T06:29:41.088Z,56.20
2023-01-17T06:32:08.235Z,50.40
2023-01-17T06:34:35.180Z,52.80
2023-01-17T06:37:02.033Z,44.00
2023-01-17T06:39:28.905Z,45.60
2023-01-17T06:41:56.124Z,49.80
2023-01-17T06:44:23.185Z,42.00
2023-01-17T06:46:50.152Z,43.90
2023-01-17T06:49:17.070Z,48.00
2023-01-17T06:51:43.960Z,38.40
2023-01-17T06:54:10.842Z,43.30
2023-01-17T06:56:37.804Z,38.00
2023-01-17T07:01:56.272Z,41.70
2023-01-17T07:04:23.223Z,41.10
2023-01-17T07:06:50.172Z,41.90
2023-01-17T07:09:17.226Z,35.40
2023-01-17T07:11:45.607Z,43.10
2023-01-17T07:14:13.384Z,47.40
2023-01-17T07:16:40.890Z,45.40
2023-01-17T07:19:07.874Z,40.50
2023-01-17T07:21:34.818Z,41.40
2023-01-17T07:24:01.770Z,41.50
2023-01-17T07:26:28.714Z,40.90
2023-01-17T07:28:55.774Z,39.70
2023-01-17T07:31:22.668Z,41.50
2023-01-17T07:33:49.586Z,44.40
2023-01-17T07:36:16.505Z,43.00
2023-01-17T07:38:45.024Z,41.90
2023-01-17T07:41:12.035Z,40.30
2023-01-17T07:43:39.284Z,45.50
2023-01-17T07:46:07.009Z,35.80
2023-01-17T07:48:34.000Z,40.10
2023-01-17T07:51:01.387Z,41.50
2023-01-17T07:53:29.859Z,41.70
2023-01-17T07:56:01.754Z,37.10
2023-01-17T07:58:28.976Z,36.50
2023-01-17T08:01:04.596Z,30.90
2023-01-17T08:03:35.355Z,38.30
2023-01-17T08:06:02.700Z,40.60
2023-01-17T08:08:29.764Z,43.70
2023-01-17T08:10:56.704Z,40.00
2023-01-17T08:13:23.846Z,37.30
2023-01-17T08:15:51.133Z,41.60
2023-01-17T08:18:18.459Z,37.60
2023-01-17T08:20:45.603Z,37.40
2023-01-17T08:23:12.762Z,34.40
2023-01-17T08:25:40.028Z,48.00
2023-01-17T08:28:07.060Z,50.30
2023-01-17T08:30:34.835Z,42.70
2023-01-17T08:33:01.987Z,48.90
2023-01-17T08:35:29.133Z,38.40
2023-01-17T08:37:56.539Z,42.00
2023-01-17T08:40:23.708Z,43.30
2023-01-17T08:42:55.455Z,45.60
2023-01-17T08:45:22.351Z,54.40
2023-01-17T08:47:49.604Z,52.40
2023-01-17T08:50:20.734Z,39.30
2023-01-17T08:52:50.799Z,46.20
2023-01-17T08:55:17.960Z,42.00
2023-01-17T08:57:45.066Z,51.70
2023-01-17T09:00:16.233Z,48.30
2023-01-17T09:02:43.101Z,36.20
2023-01-17T09:05:10.310Z,45.30
2023-01-17T09:07:37.389Z,49.90
2023-01-17T09:10:05.322Z,43.50
2023-01-17T09:12:33.084Z,49.80
2023-01-17T09:15:01.012Z,46.60
2023-01-17T09:17:28.014Z,36.80
2023-01-17T09:19:54.943Z,48.50
2023-01-17T13:46:20.450Z,61.70
2023-01-17T13:48:49.470Z,67.20
2023-01-17T13:51:19.969Z,60.20
2023-01-17T13:53:47.507Z,69.10
2023-01-17T13:56:30.048Z,60.00
2023-01-17T13:59:02.219Z,54.40
2023-01-17T14:01:32.620Z,74.30
2023-01-17T14:03:59.611Z,72.30
2023-01-17T14:06:40.839Z,70.20
2023-01-17T14:09:19.148Z,58.90
2023-01-17T14:12:10.713Z,67.90
2023-01-17T14:14:41.021Z,84.10
2023-01-17T14:17:29.389Z,73.00
2023-01-17T14:20:01.323Z,74.40
2023-01-17T14:22:29.741Z,68.80
2023-01-17T14:24:57.702Z,72.40
2023-01-17T14:27:25.064Z,74.40
2023-01-17T14:29:59.253Z,78.40
2023-01-17T14:32:31.875Z,67.20
2023-01-17T14:34:59.011Z,75.00
2023-01-17T14:37:32.272Z,73.80
2023-01-17T14:39:59.911Z,72.70
2023-01-17T14:42:29.016Z,72.00
2023-01-17T14:45:09.135Z,72.50
2023-01-17T14:47:39.417Z,64.20
2023-01-17T14:50:37.107Z,77.20
2023-01-17T14:53:13.413Z,80.10
2023-01-17T14:55:57.341Z,70.50
2023-01-17T14:58:34.425Z,69.20
2023-01-17T15:01:03.386Z,68.30
2023-01-17T15:03:32.414Z,73.10
2023-01-17T15:06:22.884Z,74.00
2023-01-17T15:08:50.048Z,67.50
2023-01-17T15:11:25.697Z,67.60
2023-01-17T15:13:55.036Z,71.40
2023-01-17T15:16:24.632Z,67.40
2023-01-17T15:18:52.812Z,65.80
2023-01-17T15:21:35.716Z,67.20
2023-01-17T15:24:07.065Z,69.80
2023-01-17T15:26:34.902Z,67.60
2023-01-17T15:29:12.546Z,61.20
2023-01-17T15:31:39.390Z,55.60
2023-01-17T15:34:07.438Z,58.60
2023-01-17T15:36:34.504Z,72.20
2023-01-17T15:39:30.403Z,51.10
2023-01-17T15:41:59.320Z,68.70
2023-01-17T15:44:47.432Z,58.20
2023-01-17T15:47:32.314Z,57.10
2023-01-17T15:50:00.795Z,59.70
2023-01-17T15:52:28.050Z,65.90
2023-01-17T15:55:13.849Z,58.80
2023-01-17T15:57:40.995Z,58.00
2023-01-17T16:00:18.594Z,57.60
2023-01-17T16:02:46.422Z,61.80
2023-01-17T16:05:23.124Z,63.40
2023-01-17T16:07:54.173Z,57.10
2023-01-17T16:10:23.231Z,62.50
2023-01-17T16:12:52.866Z,52.90
2023-01-17T16:15:26.254Z,61.40
2023-01-17T16:17:57.888Z,74.30
2023-01-17T16:20:34.860Z,61.10
2023-01-17T16:23:02.718Z,59.70
2023-01-17T16:25:32.625Z,59.40
2023-01-17T16:27:59.863Z,59.00
2023-01-17T16:30:26.826Z,54.90
2023-01-17T16:32:53.746Z,61.60
2023-01-17T16:35:25.574Z,61.60
2023-01-17T16:37:56.564Z,50.90
2023-01-17T16:40:25.148Z,59.00
2023-01-17T16:42:52.038Z,58.40
2023-01-17T16:45:19.108Z,65.60
2023-01-17T16:47:47.032Z,53.70
2023-01-17T16:50:15.541Z,64.30
2023-01-17T16:52:42.609Z,53.30
2023-01-17T16:55:12.390Z,62.90
2023-01-17T16:57:39.396Z,62.90
2023-01-17T17:00:10.289Z,54.80
2023-01-17T17:02:39.197Z,53.30
2023-01-17T17:05:10.391Z,54.90
2023-01-17T17:07:43.005Z,49.50
2023-01-17T17:10:10.966Z,53.20
2023-01-17T17:12:37.841Z,49.60
2023-01-17T17:15:05.872Z,47.60
2023-01-17T17:17:40.549Z,50.40
2023-01-17T17:20:12.642Z,46.20
2023-01-17T17:44:38.722Z,58.20
2023-01-17T17:47:05.694Z,56.80
2023-01-17T17:49:36.089Z,57.80
2023-01-17T17:52:04.745Z,48.10
2023-01-17T17:54:31.702Z,48.70
2023-01-17T17:56:58.587Z,56.20
2023-01-17T17:59:25.443Z,47.40
2023-01-17T18:01:52.549Z,52.70
2023-01-17T18:04:19.831Z,49.00
2023-01-17T18:06:46.782Z,48.20
2023-01-17T18:09:13.833Z,60.10
2023-01-17T18:11:41.779Z,48.80
2023-01-17T18:14:12.002Z,48.60
2023-01-17T18:19:12.475Z,64.10
2023-01-17T18:21:39.741Z,43.50
2023-01-17T18:24:09.452Z,48.30
2023-01-17T18:26:41.832Z,46.30
2023-01-17T18:29:09.855Z,51.10
2023-01-17T18:31:36.996Z,60.30
2023-01-17T18:34:05.463Z,43.00
2023-01-17T18:36:36.103Z,45.70
2023-01-17T18:39:30.472Z,52.90
2023-01-17T18:41:58.155Z,44.90
2023-01-17T18:44:27.008Z,48.00
2023-01-17T18:47:22.522Z,48.80
2023-01-17T18:49:54.008Z,46.20
2023-01-17T18:54:48.479Z,70.70
2023-01-17T18:57:15.520Z,50.00
2023-01-17T18:59:45.747Z,40.60
2023-01-17T19:02:12.800Z,48.40
2023-01-17T19:04:42.767Z,61.50
2023-01-17T19:07:11.771Z,50.50
2023-01-17T19:09:39.485Z,43.60
2023-01-17T19:12:07.684Z,45.40
2023-01-17T19:14:34.595Z,50.70
2023-01-17T19:17:01.908Z,39.30
2023-01-17T19:19:29.104Z,44.50
2023-01-17T19:21:57.107Z,47.40
2023-01-17T19:24:24.333Z,39.90
2023-01-17T19:26:54.241Z,42.50
2023-01-17T19:29:22.689Z,49.10
2023-01-17T19:31:49.922Z,50.30
2023-01-17T19:34:20.046Z,43.40
2023-01-17T19:36:50.657Z,39.90
2023-01-17T19:39:18.426Z,43.80
2023-01-17T19:41:45.912Z,39.10
2023-01-17T19:44:13.913Z,45.80
2023-01-17T19:46:40.952Z,40.80
2023-01-17T19:49:08.667Z,42.70
2023-01-17T19:51:36.439Z,44.60
2023-01-17T19:54:04.371Z,50.20
2023-01-17T19:56:31.604Z,43.80
2023-01-17T19:59:01.843Z,57.50
2023-01-17T20:01:31.670Z,53.30
2023-01-17T20:03:59.154Z,54.80
2023-01-17T20:06:29.134Z,52.10
2023-01-17T20:08:56.564Z,37.30
2023-01-17T20:11:24.208Z,43.40
2023-01-17T20:13:54.265Z,44.50
2023-01-17T20:16:24.790Z,45.40
2023-01-17T20:18:51.991Z,54.10
2023-01-17T20:21:23.970Z,54.60
2023-01-17T20:23:51.782Z,49.90
2023-01-17T20:26:21.215Z,48.20
2023-01-17T20:28:49.108Z,49.70
2023-01-17T20:31:26.416Z,47.10
2023-01-17T20:33:54.694Z,59.80
2023-01-17T20:36:26.943Z,55.40
2023-01-17T20:38:54.805Z,47.50
2023-01-17T20:41:32.207Z,48.60
2023-01-17T20:44:00.165Z,45.80
2023-01-17T20:46:35.687Z,45.20
2023-01-17T20:49:05.569Z,49.90
2023-01-17T20:51:38.611Z,43.80
2023-01-17T20:54:06.533Z,51.50
2023-01-17T20:56:37.843Z,55.60
2023-01-17T20:59:09.649Z,51.40
2023-01-17T21:01:37.376Z,52.00
2023-01-17T21:04:04.930Z,52.60
2023-01-17T21:06:32.075Z,48.10
2023-01-17T21:09:00.150Z,55.60
2023-01-17T21:11:30.780Z,47.00
2023-01-17T21:14:00.589Z,49.60
2023-01-17T21:16:28.240Z,41.60
2023-01-17T21:18:55.308Z,51.50
2023-01-17T21:21:23.762Z,53.10
2023-01-17T21:23:51.708Z,47.00
2023-01-17T21:26:19.643Z,47.10
2023-01-17T21:28:47.397Z,44.70
2023-01-17T21:31:25.443Z,45.30
2023-01-17T21:33:59.370Z,41.40
2023-01-17T21:36:28.507Z,62.20
2023-01-17T21:38:57.300Z,48.30
2023-01-17T21:41:26.650Z,46.60
2023-01-17T21:43:54.670Z,43.40
2023-01-17T21:46:22.250Z,45.80
2023-01-17T21:48:49.277Z,46.50
2023-01-17T21:51:16.566Z,43.70
2023-01-17T21:53:43.784Z,44.00
2023-01-17T21:56:31.006Z,50.80
2023-01-17T21:58:58.365Z,51.90
2023-01-17T22:01:30.444Z,53.90
2023-01-17T22:04:03.618Z,53.50
2023-01-17T22:06:32.226Z,46.70
2023-01-17T22:08:59.492Z,51.80
2023-01-17T22:11:26.923Z,50.90
2023-01-17T22:13:59.042Z,50.80
2023-01-17T22:16:26.863Z,43.40
2023-01-17T22:18:54.052Z,47.70
2023-01-17T22:21:24.810Z,49.70
2023-01-17T22:23:53.859Z,50.20
2023-01-17T22:26:22.955Z,55.00
2023-01-17T22:28:50.094Z,56.70
2023-01-17T22:31:22.923Z,52.30
2023-01-17T22:33:55.152Z,54.50
2023-01-17T22:36:22.497Z,57.10
2023-01-17T22:38:50.527Z,56.70
2023-01-17T22:41:20.387Z,55.30
2023-01-17T22:43:48.931Z,53.10
2023-01-17T22:46:19.272Z,53.00
2023-01-17T22:48:46.362Z,57.80
2023-01-17T22:51:14.762Z,51.90
2023-01-17T22:53:52.765Z,53.20
2023-01-17T22:56:21.940Z,57.80
2023-01-17T22:58:49.331Z,50.00
2023-01-17T23:01:21.883Z,56.90
2023-01-17T23:03:54.127Z,49.20
2023-01-17T23:06:28.977Z,54.30
2023-01-17T23:08:57.546Z,50.50
2023-01-17T23:11:39.879Z,54.30
2023-01-17T23:14:09.241Z,53.50
2023-01-17T23:16:59.775Z,57.80
2023-01-17T23:19:27.847Z,55.40
2023-01-17T23:22:17.661Z,43.50
2023-01-17T23:24:58.207Z,50.80
2023-01-17T23:27:51.669Z,51.00
2023-01-17T23:30:21.170Z,55.40
2023-01-17T23:32:52.317Z,53.90
2023-01-17T23:35:20.801Z,47.80
2023-01-17T23:38:06.484Z,47.80
2023-01-17T23:40:34.587Z,54.40
2023-01-17T23:43:20.382Z,51.90
2023-01-17T23:45:47.366Z,49.80
2023-01-17T23:48:14.447Z,47.20
2023-01-17T23:50:42.852Z,44.40
2023-01-17T23:53:12.159Z,46.30
2023-01-17T23:55:40.815Z,50.00
2023-01-17T23:58:11.463Z,52.30
